createdAt,value
2023-05-01T00:01:43.238Z,78.40
2023-05-01T00:04:09.965Z,78.33
2023-05-01T00:06:36.758Z,78.18
2023-05-01T00:09:07.205Z,78.16
2023-05-01T00:11:37.662Z,78.14
2023-05-01T00:14:04.416Z,77.81
2023-05-01T00:16:31.333Z,78.27
2023-05-01T00:18:57.801Z,78.71
2023-05-01T00:21:24.668Z,78.64
2023-05-01T00:23:51.266Z,78.66
2023-05-01T00:26:17.763Z,78.92
2023-05-01T00:28:44.238Z,79.38
2023-05-01T00:31:10.977Z,79.38
2023-05-01T00:33:37.477Z,79.25
2023-05-01T00:36:06.308Z,79.54
2023-05-01T00:38:37.717Z,79.72
2023-05-01T00:41:06.748Z,79.65
2023-05-01T00:43:36.301Z,79.64
2023-05-01T00:46:03.324Z,79.38
2023-05-01T00:48:32.221Z,79.25
2023-05-01T00:51:01.900Z,79.46
2023-05-01T00:53:31.041Z,79.12
2023-05-01T00:56:00.912Z,78.91
2023-05-01T00:58:27.817Z,79.21
2023-05-01T01:00:57.349Z,79.51
2023-05-01T01:03:27.649Z,79.84
2023-05-01T01:06:04.976Z,79.96
2023-05-01T01:08:42.281Z,80.40
2023-05-01T01:11:27.032Z,80.35
2023-05-01T01:14:05.948Z,80.43
2023-05-01T01:16:45.972Z,80.42
2023-05-01T01:19:30.041Z,80.60
2023-05-01T01:22:06.173Z,80.61
2023-05-01T01:25:12.225Z,80.34
2023-05-01T01:27:58.017Z,80.92
2023-05-01T01:30:33.516Z,80.94
2023-05-01T01:33:40.178Z,80.87
2023-05-01T01:36:13.580Z,81.09
2023-05-01T01:38:46.956Z,80.88
2023-05-01T01:41:22.455Z,81.21
2023-05-01T01:43:58.445Z,81.36
2023-05-01T01:46:26.870Z,81.57
2023-05-01T01:48:56.194Z,81.86
2023-05-01T01:51:29.380Z,82.06
2023-05-01T01:54:03.086Z,82.05
2023-05-01T01:56:35.381Z,81.87
2023-05-01T01:59:06.118Z,81.51
2023-05-01T02:01:34.989Z,81.59
2023-05-01T02:04:03.385Z,81.77
2023-05-01T02:06:33.051Z,82.33
2023-05-01T02:09:06.375Z,82.35
2023-05-01T02:11:38.650Z,82.53
2023-05-01T02:14:08.870Z,83.20
2023-05-01T02:16:36.822Z,83.32
2023-05-01T02:19:07.391Z,83.58
2023-05-01T02:21:37.838Z,83.64
2023-05-01T02:24:10.426Z,83.73
2023-05-01T02:26:43.261Z,83.53
2023-05-01T02:29:10.548Z,83.28
2023-05-01T02:31:37.299Z,83.01
2023-05-01T02:34:03.896Z,82.92
2023-05-01T02:36:33.430Z,82.85
2023-05-01T02:39:01.482Z,83.20
2023-05-01T02:41:28.420Z,83.41
2023-05-01T02:44:04.155Z,83.80
2023-05-01T02:46:33.345Z,83.74
2023-05-01T02:49:05.256Z,84.03
2023-05-01T02:51:32.565Z,83.96
2023-05-01T02:54:00.157Z,84.30
2023-05-01T02:56:29.737Z,84.35
2023-05-01T02:58:58.602Z,84.99
2023-05-01T03:01:28.441Z,84.50
2023-05-01T03:03:58.246Z,84.80
2023-05-01T03:06:24.836Z,84.53
2023-05-01T03:08:53.695Z,84.74
2023-05-01T03:11:21.182Z,85.02
2023-05-01T03:13:48.689Z,84.80
2023-05-01T03:16:15.171Z,84.37
2023-05-01T03:18:44.252Z,84.41
2023-05-01T03:21:12.563Z,83.88
2023-05-01T03:23:41.762Z,83.64
2023-05-01T03:26:08.562Z,83.94
2023-05-01T03:28:35.054Z,84.40
2023-05-01T03:31:01.607Z,83.91
2023-05-01T03:33:28.142Z,83.73
2023-05-01T03:36:08.932Z,84.14
2023-05-01T03:38:37.761Z,84.72
2023-05-01T03:41:09.118Z,84.82
2023-05-01T03:43:35.710Z,85.11
2023-05-01T03:46:04.358Z,85.01
2023-05-01T03:48:33.380Z,84.69
2023-05-01T03:51:01.961Z,84.74
2023-05-01T03:53:28.462Z,84.86
2023-05-01T03:55:59.777Z,85.34
2023-05-01T03:58:26.218Z,85.48
2023-05-01T04:00:56.942Z,85.55
2023-05-01T04:03:25.979Z,85.58
2023-05-01T04:05:54.675Z,85.23
2023-05-01T04:08:23.636Z,84.93
2023-05-01T04:10:50.099Z,85.23
2023-05-01T04:13:16.574Z,85.32
2023-05-01T04:15:45.770Z,84.97
2023-05-01T04:18:14.666Z,84.42
2023-05-01T04:20:41.255Z,83.75
2023-05-01T04:23:09.506Z,83.77
2023-05-01T04:25:38.465Z,83.91
2023-05-01T04:28:05.223Z,84.61
2023-05-01T04:30:31.895Z,85.17
2023-05-01T04:33:00.515Z,84.99
2023-05-01T04:35:29.313Z,85.36
2023-05-01T04:37:55.844Z,85.18
2023-05-01T04:40:22.274Z,84.99
2023-05-01T04:42:50.891Z,84.65
2023-05-01T04:45:17.470Z,84.44
2023-05-01T04:47:44.335Z,84.52
2023-05-01T04:50:11.570Z,83.99
2023-05-01T04:52:38.082Z,83.97
2023-05-01T04:55:04.999Z,83.62
2023-05-01T04:57:33.956Z,83.12
2023-05-01T05:00:00.520Z,82.69
2023-05-01T05:02:27.358Z,82.61
2023-05-01T05:04:54.213Z,82.18
2023-05-01T05:07:23.251Z,82.05
2023-05-01T05:09:52.291Z,81.24
2023-05-01T05:12:21.067Z,80.69
2023-05-01T05:14:50.064Z,80.94
2023-05-01T05:17:16.509Z,81.28
2023-05-01T05:19:45.401Z,81.86
2023-05-01T05:22:12.649Z,82.04
2023-05-01T05:24:41.699Z,80.69
2023-05-01T05:27:10.476Z,79.51
2023-05-01T05:29:36.969Z,79.20
2023-05-01T05:32:03.725Z,79.18
2023-05-01T05:34:30.272Z,79.04
2023-05-01T05:36:56.779Z,79.53
2023-05-01T05:39:23.756Z,79.23
2023-05-01T05:41:50.522Z,79.33
2023-05-01T05:44:17.017Z,78.38
2023-05-01T05:46:46.098Z,77.98
2023-05-01T05:49:14.909Z,77.38
2023-05-01T05:51:41.371Z,77.17
2023-05-01T05:54:07.890Z,77.49
2023-05-01T05:56:34.395Z,77.20
2023-05-01T05:59:04.622Z,77.68
2023-05-01T06:01:33.771Z,77.95
2023-05-01T06:04:00.232Z,78.59
2023-05-01T06:06:29.485Z,79.09
2023-05-01T06:08:56.030Z,79.08
2023-05-01T06:11:27.796Z,78.99
2023-05-01T06:13:54.525Z,79.15
2023-05-01T06:16:21.426Z,78.33
2023-05-01T06:18:47.959Z,77.66
2023-05-01T06:21:14.487Z,78.10
2023-05-01T06:23:40.987Z,78.20
2023-05-01T06:26:10.068Z,78.37
2023-05-01T06:28:38.794Z,78.37
2023-05-01T06:31:08.259Z,77.95
2023-05-01T06:33:36.913Z,77.40
2023-05-01T06:36:05.988Z,76.39
2023-05-01T06:38:33.156Z,74.95
2023-05-01T06:41:03.582Z,75.19
2023-05-01T06:43:31.151Z,75.24
2023-05-01T06:45:57.680Z,74.30
2023-05-01T06:48:24.191Z,72.77
2023-05-01T06:50:58.056Z,73.97
2023-05-01T06:53:24.502Z,74.09
2023-05-01T06:55:51.124Z,74.32
2023-05-01T06:58:24.005Z,74.34
2023-05-01T07:00:52.238Z,74.32
2023-05-01T07:03:18.998Z,73.71
2023-05-01T07:05:47.811Z,72.68
2023-05-01T07:08:16.694Z,71.45
2023-05-01T07:10:45.548Z,71.84
2023-05-01T07:13:12.270Z,70.04
2023-05-01T07:15:41.018Z,70.74
2023-05-01T07:18:07.590Z,70.17
2023-05-01T07:20:34.880Z,68.91
2023-05-01T07:23:01.536Z,70.00
2023-05-01T07:25:30.503Z,68.83
2023-05-01T07:27:57.099Z,68.18
2023-05-01T07:30:26.703Z,69.66
2023-05-01T07:32:57.374Z,69.60
2023-05-01T07:35:26.280Z,69.47
2023-05-01T07:37:55.299Z,69.02
2023-05-01T07:40:21.868Z,69.34
2023-05-01T07:42:48.381Z,67.88
2023-05-01T07:45:19.421Z,68.83
2023-05-01T07:47:46.164Z,69.20
2023-05-01T07:50:13.295Z,69.15
2023-05-01T07:52:39.898Z,67.64
2023-05-01T07:55:11.933Z,68.11
2023-05-01T07:57:38.875Z,68.15
2023-05-01T08:00:11.312Z,66.57
2023-05-01T08:02:41.020Z,67.35
2023-05-01T08:05:10.366Z,66.85
2023-05-01T08:07:39.227Z,67.21
2023-05-01T08:10:11.683Z,66.87
2023-05-01T08:12:38.335Z,68.05
2023-05-01T08:15:05.419Z,68.51
2023-05-01T08:17:31.945Z,68.29
2023-05-01T08:20:00.114Z,68.82
2023-05-01T08:22:29.038Z,68.65
2023-05-01T08:25:00.463Z,69.09
2023-05-01T08:27:26.986Z,68.98
2023-05-01T08:29:55.913Z,69.22
2023-05-01T08:32:22.780Z,69.34
2023-05-01T08:34:52.099Z,68.28
2023-05-01T08:37:19.300Z,68.51
2023-05-01T08:39:45.767Z,68.85
2023-05-01T08:42:17.458Z,69.93
2023-05-01T08:44:49.003Z,69.60
2023-05-01T08:47:17.458Z,70.34
2023-05-01T08:49:47.340Z,70.36
2023-05-01T08:52:17.115Z,70.89
2023-05-01T08:54:45.222Z,71.29
2023-05-01T08:57:15.391Z,71.05
2023-05-01T08:59:41.885Z,71.64
2023-05-01T09:02:09.752Z,71.50
2023-05-01T09:04:42.749Z,71.22
2023-05-01T09:07:10.139Z,71.83
2023-05-01T09:09:37.110Z,71.28
2023-05-01T09:12:23.046Z,71.48
2023-05-01T09:14:52.116Z,70.52
2023-05-01T09:17:19.887Z,71.42
2023-05-01T09:19:47.232Z,69.97
2023-05-01T09:22:13.842Z,70.27
2023-05-01T09:24:42.588Z,70.39
2023-05-01T09:27:09.794Z,71.32
2023-05-01T09:29:41.460Z,70.46
2023-05-01T09:32:25.458Z,69.59
2023-05-01T09:34:54.893Z,70.29
2023-05-01T09:37:31.937Z,70.52
2023-05-01T09:40:14.571Z,68.56
2023-05-01T09:42:51.962Z,67.60
2023-05-01T09:45:19.416Z,67.99
2023-05-01T09:47:47.096Z,67.75
2023-05-01T09:50:34.350Z,66.68
2023-05-01T09:53:06.438Z,66.12
2023-05-01T09:55:33.976Z,64.81
2023-05-01T09:58:00.588Z,63.74
2023-05-01T10:00:27.246Z,62.61
2023-05-01T10:02:56.100Z,62.67
2023-05-01T10:05:23.597Z,62.88
2023-05-01T10:07:59.906Z,61.45
2023-05-01T10:10:26.848Z,61.31
2023-05-01T10:12:55.511Z,60.63
2023-05-01T10:15:26.739Z,61.38
2023-05-01T10:17:54.553Z,61.71
2023-05-01T10:20:21.629Z,59.65
2023-05-01T10:22:49.068Z,60.80
2023-05-01T10:25:17.627Z,61.41
2023-05-01T10:27:46.742Z,60.88
2023-05-01T10:30:13.174Z,60.33
2023-05-01T10:32:47.062Z,59.74
2023-05-01T10:35:21.619Z,58.73
2023-05-01T10:37:57.465Z,58.19
2023-05-01T10:40:41.954Z,59.29
2023-05-01T10:43:14.436Z,60.10
2023-05-01T10:45:40.971Z,57.14
2023-05-01T10:48:07.748Z,58.68
2023-05-01T10:50:56.598Z,58.52
2023-05-01T10:53:25.355Z,57.83
2023-05-01T10:55:55.353Z,56.59
2023-05-01T10:58:51.321Z,56.26
2023-05-01T11:01:31.498Z,55.80
2023-05-01T11:04:00.540Z,56.58
2023-05-01T11:06:27.300Z,57.15
2023-05-01T11:08:54.806Z,56.42
2023-05-01T11:11:21.519Z,55.93
2023-05-01T11:14:08.582Z,55.49
2023-05-01T11:16:40.553Z,55.34
2023-05-01T11:19:31.422Z,53.80
2023-05-01T11:22:00.628Z,54.22
2023-05-01T11:24:35.308Z,53.09
2023-05-01T11:27:04.899Z,54.74
2023-05-01T11:29:34.929Z,54.86
2023-05-01T11:32:01.618Z,54.28
2023-05-01T11:34:36.109Z,52.32
2023-05-01T11:37:05.081Z,52.44
2023-05-01T11:39:31.551Z,50.75
2023-05-01T11:42:11.483Z,50.33
2023-05-01T11:44:37.977Z,51.77
2023-05-01T11:47:07.254Z,53.27
2023-05-01T11:49:33.969Z,49.52
2023-05-01T11:52:02.779Z,51.66
2023-05-01T11:54:29.447Z,50.73
2023-05-01T11:57:01.279Z,50.84
2023-05-01T11:59:28.012Z,51.92
2023-05-01T12:01:54.719Z,53.74
2023-05-01T12:04:29.719Z,50.88
2023-05-01T12:07:00.782Z,50.91
2023-05-01T12:09:30.692Z,51.01
2023-05-01T12:12:01.920Z,48.82
2023-05-01T12:14:30.885Z,50.35
2023-05-01T12:16:59.759Z,48.54
2023-05-01T12:19:26.392Z,47.63
2023-05-01T12:22:07.116Z,47.56
2023-05-01T12:24:33.733Z,48.44
2023-05-01T12:27:01.864Z,48.74
2023-05-01T12:29:42.671Z,49.42
2023-05-01T12:32:09.332Z,49.92
2023-05-01T12:34:40.735Z,48.04
2023-05-01T12:37:07.348Z,50.54
2023-05-01T12:39:44.989Z,49.80
2023-05-01T12:42:15.185Z,49.20
2023-05-01T12:44:43.371Z,50.57
2023-05-01T12:47:14.876Z,50.22
2023-05-01T12:49:41.771Z,50.73
2023-05-01T12:52:11.193Z,51.15
2023-05-01T12:54:39.562Z,51.06
2023-05-01T12:57:17.954Z,54.33
2023-05-01T12:59:46.219Z,55.21
2023-05-01T13:02:29.317Z,56.56
2023-05-01T13:05:10.101Z,56.06
2023-05-01T13:07:37.371Z,56.60
2023-05-01T13:10:07.047Z,57.65
2023-05-01T13:12:43.862Z,57.35
2023-05-01T13:15:21.043Z,58.61
2023-05-01T13:17:50.612Z,57.82
2023-05-01T13:20:26.785Z,59.38
2023-05-01T13:22:57.856Z,58.66
2023-05-01T13:25:24.919Z,59.67
2023-05-01T13:27:54.334Z,61.79
2023-05-01T13:30:30.951Z,61.84
2023-05-01T13:32:57.536Z,61.84
2023-05-01T13:35:25.306Z,60.62
2023-05-01T13:37:52.364Z,61.05
2023-05-01T13:40:19.718Z,61.78
2023-05-01T13:42:48.186Z,64.19
2023-05-01T13:45:21.806Z,64.02
2023-05-01T13:47:50.682Z,63.73
2023-05-01T13:50:20.050Z,63.95
2023-05-01T13:52:49.130Z,63.49
2023-05-01T13:55:19.944Z,62.73
2023-05-01T13:57:49.502Z,62.67
2023-05-01T14:00:20.070Z,61.34
2023-05-01T14:02:49.000Z,60.49
2023-05-01T14:05:16.793Z,62.14
2023-05-01T14:07:58.260Z,62.10
2023-05-01T14:10:28.048Z,60.75
2023-05-01T14:12:58.872Z,59.63
2023-05-01T14:15:25.658Z,58.81
2023-05-01T14:17:55.026Z,58.69
2023-05-01T14:20:24.843Z,59.51
2023-05-01T14:22:53.786Z,58.37
2023-05-01T14:25:31.288Z,59.20
2023-05-01T14:28:00.946Z,57.99
2023-05-01T14:30:37.632Z,57.33
2023-05-01T14:33:07.548Z,56.25
2023-05-01T14:35:38.017Z,55.75
2023-05-01T14:38:11.056Z,56.29
2023-05-01T14:40:40.272Z,54.93
2023-05-01T14:43:07.142Z,55.25
2023-05-01T14:45:36.713Z,53.85
2023-05-01T14:48:03.727Z,53.20
2023-05-01T14:50:31.339Z,52.88
2023-05-01T14:52:59.190Z,52.93
2023-05-01T14:55:29.482Z,52.75
2023-05-01T14:57:58.868Z,52.33
2023-05-01T15:00:26.868Z,52.86
2023-05-01T15:02:58.586Z,52.28
2023-05-01T15:05:26.289Z,52.61
2023-05-01T15:08:00.328Z,54.02
2023-05-01T15:10:29.506Z,52.45
2023-05-01T15:13:00.950Z,52.41
2023-05-01T15:15:27.488Z,53.52
2023-05-01T15:17:54.056Z,52.98
2023-05-01T15:20:20.619Z,54.76
2023-05-01T15:22:49.361Z,54.71
2023-05-01T15:25:16.385Z,53.35
2023-05-01T15:27:43.997Z,54.19
2023-05-01T15:30:15.079Z,55.34
2023-05-01T15:32:41.773Z,53.25
2023-05-01T15:35:10.874Z,53.75
2023-05-01T15:37:37.359Z,53.84
2023-05-01T15:40:07.030Z,53.27
2023-05-01T15:42:38.136Z,52.59
2023-05-01T15:45:05.814Z,53.23
2023-05-01T15:47:32.309Z,54.74
2023-05-01T15:50:01.321Z,55.13
2023-05-01T15:52:28.074Z,54.82
2023-05-01T15:54:56.994Z,53.85
2023-05-01T15:57:23.607Z,55.53
2023-05-01T15:59:53.987Z,53.78
2023-05-01T16:02:20.727Z,55.03
2023-05-01T16:04:49.923Z,55.20
2023-05-01T16:07:16.416Z,56.09
2023-05-01T16:09:45.142Z,56.67
2023-05-01T16:12:11.730Z,56.66
2023-05-01T16:14:42.105Z,57.23
2023-05-01T16:17:08.963Z,57.18
2023-05-01T16:19:36.979Z,57.61
2023-05-01T16:22:04.838Z,57.19
2023-05-01T16:24:36.334Z,56.92
2023-05-01T16:27:05.373Z,58.22
2023-05-01T16:29:38.129Z,58.10
2023-05-01T16:32:05.991Z,57.28
2023-05-01T16:34:38.046Z,57.48
2023-05-01T16:37:05.862Z,58.96
2023-05-01T16:39:38.390Z,58.43
2023-05-01T16:42:07.947Z,58.36
2023-05-01T16:44:37.808Z,59.14
2023-05-01T16:47:05.179Z,60.29
2023-05-01T16:49:31.859Z,61.79
2023-05-01T16:51:58.769Z,62.67
2023-05-01T16:54:36.108Z,63.82
2023-05-01T16:57:05.563Z,63.79
2023-05-01T16:59:32.529Z,64.91
2023-05-01T17:02:01.420Z,65.65
2023-05-01T17:04:30.437Z,66.24
2023-05-01T17:06:58.229Z,66.43
2023-05-01T17:09:27.433Z,66.82
2023-05-01T17:11:57.515Z,67.40
2023-05-01T17:14:24.074Z,66.58
2023-05-01T17:16:55.896Z,66.41
2023-05-01T17:19:22.550Z,66.76
2023-05-01T17:21:49.003Z,67.19
2023-05-01T17:24:15.725Z,66.66
2023-05-01T17:26:42.355Z,67.24
2023-05-01T17:29:08.825Z,67.17
2023-05-01T17:31:39.911Z,67.61
2023-05-01T17:34:06.431Z,68.10
2023-05-01T17:36:35.443Z,68.30
2023-05-01T17:39:02.241Z,68.38
2023-05-01T17:41:28.866Z,68.24
2023-05-01T17:43:59.878Z,68.14
2023-05-01T17:46:28.664Z,68.69
2023-05-01T17:48:55.199Z,68.88
2023-05-01T17:51:21.716Z,68.52
2023-05-01T17:53:50.686Z,68.29
2023-05-01T17:56:18.122Z,68.78
2023-05-01T17:58:44.655Z,68.87
2023-05-01T18:01:11.247Z,69.09
2023-05-01T18:03:37.981Z,69.10
2023-05-01T18:06:04.880Z,69.48
2023-05-01T18:08:31.507Z,69.80
2023-05-01T18:11:00.517Z,70.07
2023-05-01T18:13:30.570Z,70.74
2023-05-01T18:15:57.156Z,69.77
2023-05-01T18:18:24.137Z,69.66
2023-05-01T18:20:50.764Z,69.30
2023-05-01T18:23:18.192Z,69.34
2023-05-01T18:25:47.160Z,69.63
2023-05-01T18:28:16.423Z,69.65
2023-05-01T18:30:46.080Z,70.09
2023-05-01T18:33:15.317Z,70.43
2023-05-01T18:35:42.653Z,70.79
2023-05-01T18:38:14.672Z,71.65
2023-05-01T18:40:45.930Z,71.58
2023-05-01T18:43:14.079Z,71.85
2023-05-01T18:45:42.990Z,72.28
2023-05-01T18:48:12.292Z,72.47
2023-05-01T18:50:39.004Z,72.70
2023-05-01T18:53:05.476Z,73.32
2023-05-01T18:55:35.267Z,74.01
2023-05-01T18:58:04.794Z,73.99
2023-05-01T19:00:33.512Z,74.48
2023-05-01T19:03:00.186Z,75.01
2023-05-01T19:05:26.837Z,75.07
2023-05-01T19:07:55.312Z,75.46
2023-05-01T19:10:21.965Z,75.92
2023-05-01T19:12:51.373Z,76.48
2023-05-01T19:15:17.992Z,76.46
2023-05-01T19:17:47.044Z,76.77
2023-05-01T19:20:15.892Z,77.23
2023-05-01T19:22:44.955Z,77.43
2023-05-01T19:25:13.783Z,77.44
2023-05-01T19:27:41.610Z,77.67
2023-05-01T19:30:10.594Z,78.20
2023-05-01T19:32:40.029Z,78.17
2023-05-01T19:35:11.689Z,78.72
2023-05-01T19:37:41.938Z,78.95
2023-05-01T19:40:11.496Z,79.21
2023-05-01T19:42:40.329Z,79.43
2023-05-01T19:45:07.320Z,79.78
2023-05-01T19:47:36.435Z,80.13
2023-05-01T19:50:03.405Z,80.17
2023-05-01T19:52:32.398Z,80.39
2023-05-01T19:55:03.003Z,80.51
2023-05-01T19:57:29.632Z,80.67
2023-05-01T19:59:59.174Z,81.03
2023-05-01T20:02:25.914Z,81.19
2023-05-01T20:04:52.487Z,81.41
2023-05-01T20:07:19.070Z,81.51
2023-05-01T20:09:45.967Z,81.88
2023-05-01T20:12:12.582Z,81.80
2023-05-01T20:14:41.589Z,82.27
2023-05-01T20:17:10.848Z,82.50
2023-05-01T20:19:39.631Z,82.39
2023-05-01T20:22:11.279Z,82.68
2023-05-01T20:24:37.714Z,83.25
2023-05-01T20:27:04.669Z,83.34
2023-05-01T20:29:31.153Z,83.13
2023-05-01T20:31:58.975Z,83.56
2023-05-01T20:34:25.661Z,84.08
2023-05-01T20:36:52.252Z,84.39
2023-05-01T20:39:21.027Z,84.62
2023-05-01T20:41:48.114Z,84.72
2023-05-01T20:44:14.581Z,84.74
2023-05-01T20:46:45.187Z,84.96
2023-05-01T20:49:15.719Z,85.15
2023-05-01T20:51:42.770Z,85.49
2023-05-01T20:54:09.313Z,85.73
2023-05-01T20:56:35.901Z,86.08
2023-05-01T20:59:06.637Z,86.45
2023-05-01T21:01:33.217Z,86.83
2023-05-01T21:04:06.298Z,87.26
2023-05-01T21:06:35.785Z,87.36
2023-05-01T21:09:04.328Z,87.56
2023-05-01T21:11:33.900Z,87.94
2023-05-01T21:14:05.303Z,88.43
2023-05-01T21:16:33.613Z,88.37
2023-05-01T21:19:00.198Z,88.26
2023-05-01T21:21:29.762Z,88.23
2023-05-01T21:23:56.356Z,88.46
2023-05-01T21:26:22.860Z,88.64
2023-05-01T21:28:49.579Z,88.79
2023-05-01T21:31:16.114Z,88.56
2023-05-01T21:33:47.987Z,88.63
2023-05-01T21:36:20.142Z,88.35
2023-05-01T21:38:46.658Z,88.15
2023-05-01T21:41:15.381Z,87.98
2023-05-01T21:43:44.375Z,87.98
2023-05-01T21:46:17.147Z,87.63
2023-05-01T21:48:44.430Z,87.58
2023-05-01T21:51:13.449Z,87.40
2023-05-01T21:53:43.051Z,87.52
2023-05-01T21:56:11.086Z,87.43
2023-05-01T21:58:40.786Z,87.11
2023-05-01T22:01:09.410Z,86.92
2023-05-01T22:03:39.787Z,86.78
2023-05-01T22:06:10.883Z,86.63
2023-05-01T22:08:37.766Z,86.62
2023-05-01T22:11:05.471Z,86.62
2023-05-01T22:13:33.626Z,86.46
2023-05-01T22:16:03.804Z,86.51
2023-05-01T22:18:30.357Z,86.36
2023-05-01T22:20:57.151Z,86.23
2023-05-01T22:23:27.012Z,86.32
2023-05-01T22:25:59.811Z,86.51
2023-05-01T22:28:26.879Z,86.34
2023-05-01T22:30:53.377Z,86.42
2023-05-01T22:33:24.632Z,86.46
2023-05-01T22:35:51.092Z,86.49
2023-05-01T22:38:19.931Z,86.33
2023-05-01T22:40:48.754Z,86.54
2023-05-01T22:43:15.421Z,86.37
2023-05-01T22:45:42.872Z,86.18
2023-05-01T22:48:09.482Z,86.24
2023-05-01T22:50:36.090Z,86.40
2023-05-01T22:53:07.435Z,86.28
2023-05-01T22:55:33.914Z,86.38
2023-05-01T22:58:02.695Z,86.24
2023-05-01T23:00:29.825Z,86.22
2023-05-01T23:02:58.954Z,86.22
2023-05-01T23:05:25.475Z,86.51
2023-05-01T23:07:52.005Z,86.71
2023-05-01T23:10:28.167Z,86.72
2023-05-01T23:12:59.991Z,86.96
2023-05-01T23:15:26.725Z,87.40
2023-05-01T23:17:55.735Z,87.53
2023-05-01T23:20:24.952Z,87.84
2023-05-01T23:22:51.767Z,87.91
2023-05-01T23:25:28.875Z,88.23
2023-05-01T23:27:56.711Z,88.28
2023-05-01T23:30:25.514Z,88.18
2023-05-01T23:32:58.024Z,88.43
2023-05-01T23:35:24.506Z,88.37
2023-05-01T23:37:52.790Z,88.26
2023-05-01T23:40:19.777Z,88.53
2023-05-01T23:42:46.623Z,88.59
2023-05-01T23:45:16.719Z,88.94
2023-05-01T23:47:45.838Z,89.16
2023-05-01T23:50:14.932Z,89.16
2023-05-01T23:52:41.535Z,89.12
2023-05-01T23:55:08.201Z,89.21
2023-05-01T23:57:34.692Z,89.33
